Time;durP1;ratioP1;P1;durP2;ratioP2;P2;SDS_P1;SDS_P2;PMS_P1;PMS_P2;Temp;Humidity;BMP_temperature;BMP_pressure;BME280_temperature;BME280_humidity;BME280_pressure;Samples;Min_cycle;Max_cycle;Signal;HPM_P1;HPM_P2
2023/07/28 00:29:12;;;;;;;;;;;;;;;;;;;;;
2023/07/28 00:32:22;;;;;;;;;;;;;;;;;;;;;
2023/07/28 00:35:02;;;;;;;22.77;10.00;;;;;;;16.20;100.00;100355.97;4828882;29;20062;-96
2023/07/28 00:38:03;;;;;;;;;;;;;;;;;;;;;
2023/07/28 00:40:50;;;;;;;27.37;9.97;;;;;;;16.21;100.00;100362.25;4823375;29;20121;-96
2023/07/28 00:46:59;;;;;;;25.80;10.43;;;;;;;16.19;100.00;100348.81;4824632;29;20400;-96
2023/07/28 01:09:27;;;;;;;30.73;10.38;;;;;;;16.22;100.00;100361.16;4688388;30;20110;-96
2023/07/28 01:16:01;;;;;;;;;;;;;;;;;;;;;
2023/07/28 01:19:10;;;;;;;37.63;10.80;;;;;;;16.20;100.00;100358.69;4652328;30;20053;-96
2023/07/28 01:21:59;;;;;;;;;;;;;;;;;;;;;
2023/07/28 01:25:07;;;;;;;;;;;;;;;;;;;;;
2023/07/28 01:27:48;;;;;;;32.33;10.87;;;;;;;16.24;100.00;100358.97;4788760;29;20061;-96
2023/07/28 01:30:36;;;;;;;32.45;10.57;;;;;;;16.20;100.00;100358.69;4804064;29;20051;-96
2023/07/28 01:33:26;;;;;;;33.55;10.80;;;;;;;16.20;100.00;100360.63;4810481;29;20035;-96
2023/07/28 01:36:21;;;;;;;32.03;9.95;;;;;;;16.24;100.00;100369.94;4756471;30;20079;-96
2023/07/28 01:39:08;;;;;;;32.97;10.70;;;;;;;16.26;100.00;100373.25;4795844;29;20045;-96
2023/07/28 01:41:35;;;;;;;29.23;9.23;;;;;;;16.21;100.00;100360.34;4810360;29;20057;-96
2023/07/28 01:44:04;;;;;;;35.25;10.73;;;;;;;16.26;100.00;100370.50;4809843;29;20060;-96
2023/07/28 01:46:45;;;;;;;33.30;10.93;;;;;;;16.22;100.00;100361.97;4810943;29;20042;-96
2023/07/28 01:49:29;;;;;;;;;;;;;;;;;;;;;
2023/07/28 01:52:02;;;;;;;33.90;11.23;;;;;;;16.24;100.00;100364.44;4810945;29;20046;-96
2023/07/28 02:01:28;;;;;;;;;;;;;;;;;;;;;
2023/07/28 02:14:19;;;;;;;45.90;13.93;;;;;;;16.27;100.00;100355.72;4702257;30;20088;-96
2023/07/28 02:20:38;;;;;;;43.92;13.98;;;;;;;16.23;100.00;100352.69;4731840;30;20133;-96
2023/07/28 02:23:28;;;;;;;45.15;13.30;;;;;;;16.30;100.00;100361.50;4731615;30;20048;-96
2023/07/28 02:30:05;;;;;;;;;;;;;;;;;;;;;
2023/07/28 02:32:38;;;;;;;48.47;14.30;;;;;;;16.25;100.00;100369.66;4763033;30;20629;-96
2023/07/28 03:10:12;;;;;;;64.80;17.85;;;;;;;16.26;100.00;100385.00;4739842;30;20036;-96
2023/07/28 05:27:45;;;;;;;66.10;20.60;;;;;;;16.48;100.00;100447.00;3990594;24;20334;-92
2023/07/28 05:30:11;;;;;;;65.57;21.95;;;;;;;16.53;100.00;100457.16;4758997;30;20071;-91
2023/07/28 05:32:38;;;;;;;70.10;22.30;;;;;;;16.52;100.00;100448.13;4774063;30;20047;-90
2023/07/28 05:35:06;;;;;;;69.70;22.53;;;;;;;16.49;100.00;100463.19;4760057;30;20293;-90
2023/07/28 05:37:38;;;;;;;65.97;22.65;;;;;;;16.57;100.00;100461.84;4773903;30;20485;-90
2023/07/28 05:40:05;;;;;;;77.43;24.02;;;;;;;16.58;100.00;100462.66;4774179;30;20039;-89
2023/07/28 05:42:34;;;;;;;76.18;25.30;;;;;;;16.57;100.00;100466.50;4773450;30;20042;-90
2023/07/28 05:44:59;;;;;;;75.90;25.20;;;;;;;16.63;100.00;100470.94;4774093;30;20032;-89
2023/07/28 05:47:25;;;;;;;82.97;26.73;;;;;;;16.59;100.00;100469.81;4773964;30;20038;-88
2023/07/28 05:49:53;;;;;;;83.10;28.63;;;;;;;16.62;100.00;100474.75;4774163;30;20043;-86
2023/07/28 05:52:19;;;;;;;90.65;28.23;;;;;;;16.63;100.00;100473.66;4790229;30;20032;-86
2023/07/28 05:54:45;;;;;;;90.88;30.50;;;;;;;16.64;100.00;100464.38;4758762;30;20047;-86
2023/07/28 05:57:13;;;;;;;91.97;30.03;;;;;;;16.66;100.00;100471.19;4773386;30;20043;-89
2023/07/28 05:59:39;;;;;;;96.00;31.15;;;;;;;16.72;100.00;100484.94;4773421;30;20104;-89
2023/07/28 06:02:04;;;;;;;92.60;31.03;;;;;;;16.71;100.00;100475.06;4773573;30;20496;-85
2023/07/28 06:04:30;;;;;;;100.85;30.73;;;;;;;16.74;100.00;100474.53;4773426;30;20043;-87
2023/07/28 06:06:55;;;;;;;103.17;31.60;;;;;;;16.76;100.00;100477.84;4773316;30;20079;-87
2023/07/28 06:09:23;;;;;;;106.33;32.87;;;;;;;16.77;100.00;100480.31;4773136;30;20119;-88
2023/07/28 06:11:51;;;;;;;103.20;31.60;;;;;;;16.77;100.00;100479.47;4789262;30;20035;-89
2023/07/28 06:14:18;;;;;;;101.22;31.60;;;;;;;16.76;100.00;100478.66;4788637;30;20081;-89
2023/07/28 06:16:51;;;;;;;99.77;31.37;;;;;;;16.74;100.00;100469.91;4758599;30;20080;-88
2023/07/28 06:19:23;;;;;;;93.75;29.95;;;;;;;16.77;100.00;100485.81;4773391;30;20480;-88
2023/07/28 06:21:52;;;;;;;102.90;31.13;;;;;;;16.85;100.00;100484.47;4788246;30;20035;-88
2023/07/28 06:24:18;;;;;;;90.95;29.50;;;;;;;16.78;100.00;100468.25;4773103;30;20046;-88
2023/07/28 06:26:46;;;;;;;89.63;28.30;;;;;;;16.88;100.00;100477.66;4788181;29;20031;-88
2023/07/28 06:29:12;;;;;;;83.80;25.90;;;;;;;16.81;100.00;100473.19;4772589;30;20094;-88
2023/07/28 06:31:46;;;;;;;81.63;25.80;;;;;;;16.82;100.00;100485.00;4788135;30;20027;-88
2023/07/28 06:34:12;;;;;;;73.93;24.50;;;;;;;16.83;100.00;100487.47;4789054;30;20039;-87
2023/07/28 06:36:37;;;;;;;67.40;22.53;;;;;;;16.81;100.00;100488.81;4789119;30;20066;-87
2023/07/28 06:39:04;;;;;;;68.68;21.65;;;;;;;16.86;100.00;100483.38;4773099;30;20389;-88
2023/07/28 06:41:29;;;;;;;63.22;21.67;;;;;;;16.94;100.00;100488.38;4788791;30;20473;-88
2023/07/28 06:43:55;;;;;;;61.20;20.53;;;;;;;16.97;100.00;100495.25;4772059;30;20055;-88
2023/07/28 06:46:20;;;;;;;57.87;20.70;;;;;;;16.99;100.00;100496.63;4772938;30;20039;-88
2023/07/28 06:48:46;;;;;;;58.37;19.73;;;;;;;17.03;100.00;100496.91;4772721;30;20485;-88
2023/07/28 06:51:14;;;;;;;55.72;19.38;;;;;;;16.99;100.00;100491.16;4788713;30;20542;-88
2023/07/28 06:53:39;;;;;;;49.22;18.90;;;;;;;17.05;100.00;100502.13;4788636;30;20039;-87
2023/07/28 06:56:05;;;;;;;49.87;19.17;;;;;;;17.12;100.00;100514.47;4788802;30;20035;-87
2023/07/28 06:58:30;;;;;;;48.50;18.57;;;;;;;17.04;100.00;100501.31;4788545;30;20031;-87
2023/07/28 07:00:56;;;;;;;41.38;17.45;;;;;;;17.10;100.00;100511.19;4772892;30;20043;-87
2023/07/28 07:03:23;;;;;;;45.23;17.00;;;;;;;17.11;100.00;100507.38;4788445;30;20050;-87
2023/07/28 07:05:49;;;;;;;40.87;16.80;;;;;;;17.12;100.00;100503.53;4772380;30;20277;-87
2023/07/28 07:08:14;;;;;;;41.78;14.88;;;;;;;17.19;100.00;100515.06;4773022;30;20481;-87
2023/07/28 07:10:40;;;;;;;36.57;15.60;;;;;;;17.24;100.00;100522.47;4788721;30;20035;-87
2023/07/28 07:13:05;;;;;;;38.73;15.80;;;;;;;17.32;100.00;100523.91;4788058;30;20051;-87
2023/07/28 07:15:34;;;;;;;33.95;15.48;;;;;;;17.36;100.00;100514.03;4772507;30;20031;-87
2023/07/28 07:18:00;;;;;;;37.20;15.83;;;;;;;17.43;100.00;100517.34;4772107;30;20455;-87
2023/07/28 07:20:28;;;;;;;34.83;15.18;;;;;;;17.54;100.00;100527.25;4772240;30;20050;-87
2023/07/28 07:22:54;;;;;;;33.10;15.20;;;;;;;17.56;100.00;100526.19;4773136;30;20044;-87
2023/07/28 07:25:19;;;;;;;27.92;13.23;;;;;;;17.54;100.00;100527.25;4788243;30;20078;-88
2023/07/28 07:27:45;;;;;;;24.57;13.07;;;;;;;17.59;100.00;100534.69;4788193;30;20076;-88
2023/07/28 07:30:10;;;;;;;26.53;12.43;;;;;;;17.63;100.00;100538.53;4788129;29;20116;-88
2023/07/28 07:32:36;;;;;;;20.08;11.05;;;;;;;17.65;100.00;100541.00;4788435;30;20422;-87
2023/07/28 07:35:01;;;;;;;20.30;11.03;;;;;;;17.67;100.00;100536.06;4772035;30;20040;-87
2023/07/28 07:37:31;;;;;;;18.40;10.20;;;;;;;17.71;100.00;100543.47;4772775;30;20038;-88
2023/07/28 07:39:58;;;;;;;22.05;10.85;;;;;;;17.78;100.00;100545.97;4776009;30;20066;-88
2023/07/28 07:42:23;;;;;;;18.13;9.73;;;;;;;17.83;100.00;100536.94;4790102;30;20076;-87
2023/07/28 07:44:48;;;;;;;18.43;10.00;;;;;;;17.90;100.00;100543.00;4775874;30;20035;-88
2023/07/28 07:47:15;;;;;;;15.27;9.53;;;;;;;17.95;100.00;100542.19;4775704;30;20043;-88
2023/07/28 07:49:43;;;;;;;15.00;9.40;;;;;;;18.04;100.00;100546.03;4791964;30;20500;-87
2023/07/28 07:52:12;;;;;;;15.85;9.45;;;;;;;18.05;100.00;100539.47;4791952;30;20034;-88
2023/07/28 07:54:37;;;;;;;12.93;8.80;;;;;;;18.15;100.00;100557.88;4775699;30;20065;-88
2023/07/28 07:57:04;;;;;;;12.40;8.40;;;;;;;18.20;100.00;100553.22;4775846;30;20043;-88
2023/07/28 07:59:32;;;;;;;14.48;8.63;;;;;;;18.21;100.00;100546.59;4791551;30;20427;-88
2023/07/28 08:02:00;;;;;;;13.75;8.27;;;;;;;18.25;100.00;100555.13;4791781;30;20050;-87
2023/07/28 08:04:25;;;;;;;13.93;8.40;;;;;;;18.20;100.00;100542.22;4761051;30;20043;-88
2023/07/28 08:06:54;;;;;;;12.30;8.73;;;;;;;18.18;100.00;100547.16;4791328;30;20046;-88
2023/07/28 08:09:19;;;;;;;13.25;8.25;;;;;;;18.22;100.00;100552.94;4791384;30;20047;-88
2023/07/28 08:11:44;;;;;;;12.30;8.33;;;;;;;18.17;100.00;100555.66;4775312;30;20039;-88
2023/07/28 08:14:13;;;;;;;12.80;8.40;;;;;;;18.19;100.00;100569.97;4775033;30;20042;-87
2023/07/28 08:16:39;;;;;;;13.38;8.68;;;;;;;18.18;100.00;100558.13;4790926;30;20118;-88
2023/07/28 08:19:07;;;;;;;13.37;7.97;;;;;;;18.24;100.00;100561.72;4775016;30;20114;-88
2023/07/28 08:21:36;;;;;;;10.05;7.30;;;;;;;18.25;100.00;100568.88;4791291;30;20050;-88
2023/07/28 08:24:04;;;;;;;9.03;7.23;;;;;;;18.21;100.00;100568.56;4775159;30;20396;-88
2023/07/28 08:26:32;;;;;;;10.02;6.88;;;;;;;18.29;100.00;100569.13;4775206;30;20041;-88
2023/07/28 08:28:58;;;;;;;10.40;7.15;;;;;;;18.33;100.00;100568.31;4760502;30;20081;-88
2023/07/28 08:31:23;;;;;;;10.70;7.10;;;;;;;18.47;100.00;100560.34;4760427;30;20500;-88
2023/07/28 08:33:51;;;;;;;9.77;6.82;;;;;;;18.71;100.00;100574.34;4759987;30;20067;-88
2023/07/28 08:36:17;;;;;;;8.13;6.83;;;;;;;18.89;100.00;100578.47;4759894;30;20493;-88
2023/07/28 08:38:45;;;;;;;8.38;6.03;;;;;;;19.09;100.00;100576.78;4774485;30;20128;-92
2023/07/28 08:41:25;;;;;;;7.95;5.72;;;;;;;19.24;100.00;100571.22;4775204;30;20039;-93
2023/07/28 08:44:03;;;;;;;6.27;5.67;;;;;;;19.37;100.00;100575.31;4775119;30;20055;-92
2023/07/28 08:46:34;;;;;;;5.88;5.28;;;;;;;19.55;100.00;100581.28;4775878;30;20128;-91
2023/07/28 08:49:05;;;;;;;7.68;5.60;;;;;;;19.76;100.00;100579.25;4774930;30;20059;-92
2023/07/28 08:51:40;;;;;;;6.07;4.57;;;;;;;19.79;100.00;100573.22;4775012;30;20122;-92
2023/07/28 08:54:27;;;;;;;5.25;4.70;;;;;;;19.93;100.00;100568.72;4761261;30;20231;-92
2023/07/28 08:59:51;;;;;;;5.95;5.00;;;;;;;20.47;100.00;100577.13;4781820;30;20117;-92
2023/07/28 09:02:22;;;;;;;4.80;4.40;;;;;;;20.56;100.00;100574.59;4775157;30;20035;-92
2023/07/28 09:04:51;;;;;;;4.90;4.50;;;;;;;20.70;100.00;100566.47;4775032;30;20039;-93
2023/07/28 09:07:44;;;;;;;5.97;5.38;;;;;;;21.02;100.00;100565.88;4775097;30;20031;-92
2023/07/28 09:10:18;;;;;;;6.07;5.30;;;;;;;21.36;100.00;100570.44;4775039;30;20103;-92
2023/07/28 09:12:53;;;;;;;9.57;6.28;;;;;;;21.35;100.00;100572.41;4774719;30;20076;-92
2023/07/28 09:15:22;;;;;;;6.30;5.70;;;;;;;21.52;100.00;100579.41;4774283;30;20046;-92
2023/07/28 09:17:57;;;;;;;6.38;5.78;;;;;;;21.66;100.00;100577.56;4760276;30;20043;-92
2023/07/28 09:20:22;;;;;;;6.03;5.47;;;;;;;21.80;100.00;100572.13;4760830;30;20553;-85
2023/07/28 09:22:50;;;;;;;6.53;5.93;;;;;;;21.80;100.00;100583.16;4774239;30;20119;-85
2023/07/28 09:25:17;;;;;;;6.45;5.85;;;;;;;21.71;100.00;100585.75;4774338;30;20035;-85
2023/07/28 09:27:52;;;;;;;6.77;6.20;;;;;;;21.81;100.00;100576.53;4759465;30;20515;-85
2023/07/28 09:30:18;;;;;;;6.75;6.10;;;;;;;22.08;100.00;100573.06;4774257;30;20138;-85
2023/07/28 09:32:48;;;;;;;7.05;6.20;;;;;;;22.43;100.00;100584.72;4759423;30;20115;-85
2023/07/28 09:35:16;;;;;;;6.90;6.17;;;;;;;22.69;100.00;100581.53;4790550;30;20047;-85
2023/07/28 09:37:44;;;;;;;7.00;5.25;;;;;;;22.71;100.00;100575.69;4773663;30;20038;-85
2023/07/28 09:40:11;;;;;;;6.10;5.50;;;;;;;22.22;100.00;100584.22;4774442;30;20051;-85
2023/07/28 09:42:38;;;;;;;6.35;5.53;;;;;;;22.11;100.00;100581.91;4789794;30;20139;-85
2023/07/28 09:45:05;;;;;;;6.72;6.13;;;;;;;22.30;100.00;100592.94;4789946;30;20062;-85
2023/07/28 09:47:36;;;;;;;6.63;5.77;;;;;;;22.27;100.00;100588.84;4790162;30;20039;-85
2023/07/28 09:50:08;;;;;;;6.10;5.53;;;;;;;22.42;100.00;100585.84;4774057;30;20557;-85
2023/07/28 09:52:43;;;;;;;11.05;5.70;;;;;;;22.52;100.00;100584.84;4790381;30;20111;-85
2023/07/28 09:55:11;;;;;;;5.68;4.80;;;;;;;22.61;100.00;100579.47;4774147;30;20034;-85
2023/07/28 09:57:40;;;;;;;3.95;3.65;;;;;;;22.64;100.00;100598.19;4773574;30;20040;-85
2023/07/28 10:00:10;;;;;;;3.17;2.90;;;;;;;22.56;100.00;100588.66;4773662;29;20035;-85
2023/07/28 10:02:36;;;;;;;4.45;3.00;;;;;;;22.57;100.00;100593.06;4773648;30;20443;-85
2023/07/28 10:05:02;;;;;;;3.45;3.15;;;;;;;22.64;100.00;100587.16;4773500;30;20055;-85
2023/07/28 10:07:28;;;;;;;3.63;3.30;;;;;;;22.75;100.00;100590.53;4789831;30;20485;-85
2023/07/28 10:09:54;;;;;;;4.30;3.80;;;;;;;22.42;100.00;100594.13;4773301;30;20039;-85
2023/07/28 10:12:26;;;;;;;6.25;3.22;;;;;;;22.27;100.00;100591.59;4788530;30;20039;-85
2023/07/28 10:15:02;;;;;;;5.25;4.05;;;;;;;22.23;100.00;100587.78;4789067;30;20035;-86
2023/07/28 10:17:34;;;;;;;4.40;4.00;;;;;;;22.33;100.00;100589.59;4789018;30;20507;-85
2023/07/28 10:20:08;;;;;;;4.30;4.00;;;;;;;22.32;100.00;100591.56;4773112;30;20121;-86
2023/07/28 10:23:01;;;;;;;4.32;3.90;;;;;;;22.58;100.00;100583.63;4773697;30;20443;-86
2023/07/28 10:25:27;;;;;;;4.32;3.90;;;;;;;23.04;100.00;100587.50;4789098;30;20063;-86
2023/07/28 10:27:54;;;;;;;3.92;3.60;;;;;;;23.32;97.82;100597.81;4772860;30;20446;-85
2023/07/28 10:30:20;;;;;;;4.47;3.47;;;;;;;23.46;97.76;100593.91;4772982;30;20143;-86
2023/07/28 10:32:52;;;;;;;3.20;3.00;;;;;;;23.45;96.22;100603.34;4758521;30;20118;-85
2023/07/28 10:35:17;;;;;;;3.05;2.60;;;;;;;23.46;95.65;100599.47;4773423;30;20104;-86
2023/07/28 10:37:46;;;;;;;2.97;2.67;;;;;;;23.63;93.90;100596.03;4772866;30;20489;-85
2023/07/28 10:40:28;;;;;;;2.38;2.17;;;;;;;23.69;93.92;100598.72;4772785;30;20121;-85
2023/07/28 10:42:54;;;;;;;2.45;1.80;;;;;;;23.72;88.67;100604.44;4788763;30;20040;-86
2023/07/28 10:45:22;;;;;;;2.40;2.10;;;;;;;23.63;88.62;100589.69;4772961;30;20439;-86
2023/07/28 10:47:48;;;;;;;2.88;2.28;;;;;;;23.83;89.28;100589.25;4788957;30;20039;-86
2023/07/28 10:50:14;;;;;;;2.53;2.30;;;;;;;24.11;88.20;100599.44;4788881;30;20378;-86
2023/07/28 10:52:44;;;;;;;2.83;2.47;;;;;;;24.40;86.53;100596.25;4772611;30;20031;-86
2023/07/28 10:55:22;;;;;;;2.30;2.10;;;;;;;24.96;86.89;100588.47;4788898;30;20035;-86
2023/07/28 10:57:50;;;;;;;2.63;2.20;;;;;;;25.09;81.27;100583.97;4772586;30;20027;-86
2023/07/28 11:00:17;;;;;;;6.20;2.08;;;;;;;25.08;82.13;100587.88;4788791;30;20538;-86
2023/07/28 11:02:50;;;;;;;2.33;2.17;;;;;;;25.42;82.72;100591.94;4772941;30;20067;-86
2023/07/28 11:05:29;;;;;;;4.33;2.10;;;;;;;25.65;83.50;100573.22;4772725;30;20126;-86
2023/07/28 11:07:59;;;;;;;2.33;2.13;;;;;;;25.73;78.30;100586.31;4772518;30;20055;-86
2023/07/28 11:10:27;;;;;;;2.88;2.22;;;;;;;25.30;79.16;100575.91;4788355;30;20028;-86
2023/07/28 11:12:53;;;;;;;1.85;1.75;;;;;;;25.00;79.70;100575.59;4787624;30;20035;-86
2023/07/28 11:15:19;;;;;;;3.37;1.93;;;;;;;25.08;81.57;100578.72;4772484;30;20093;-87
2023/07/28 11:17:47;;;;;;;2.53;1.70;;;;;;;24.89;77.23;100582.56;4788490;30;20114;-86
2023/07/28 11:20:28;;;;;;;2.05;1.77;;;;;;;24.76;80.60;100584.31;4788225;30;20039;-86
2023/07/28 11:22:59;;;;;;;2.50;1.50;;;;;;;24.99;77.99;100576.72;4788415;30;20043;-86
2023/07/28 11:25:27;;;;;;;1.60;1.50;;;;;;;25.84;72.86;100572.91;4788531;30;20035;-86
2023/07/28 11:27:53;;;;;;;2.10;1.90;;;;;;;26.46;72.08;100570.13;4772372;30;20073;-86
2023/07/28 11:30:19;;;;;;;1.60;1.50;;;;;;;27.97;67.47;100568.03;4788702;29;20055;-86
2023/07/28 11:32:49;;;;;;;1.88;1.33;;;;;;;29.28;60.25;100569.44;4772224;30;20067;-86
2023/07/28 11:35:19;;;;;;;1.50;1.40;;;;;;;29.10;58.80;100580.03;4771271;30;20448;-86
2023/07/28 11:37:50;;;;;;;1.52;1.30;;;;;;;28.57;60.41;100579.78;4787084;30;20114;-86
2023/07/28 11:40:18;;;;;;;1.50;1.38;;;;;;;27.89;60.96;100582.81;4772333;30;20696;-86
2023/07/28 11:42:52;;;;;;;1.30;1.20;;;;;;;26.84;65.76;100577.75;4771564;30;20072;-85
2023/07/28 11:45:19;;;;;;;1.38;1.27;;;;;;;26.18;66.20;100581.63;4786891;30;20046;-85
2023/07/28 11:48:03;;;;;;;5.43;1.40;;;;;;;25.83;71.62;100570.47;4788530;30;20108;-86
2023/07/28 11:50:33;;;;;;;1.67;1.50;;;;;;;25.67;71.04;100582.03;4787811;30;20059;-89
2023/07/28 11:52:59;;;;;;;1.40;1.30;;;;;;;25.96;72.31;100571.47;4772197;30;20040;-89
2023/07/28 11:55:25;;;;;;;1.42;1.20;;;;;;;25.90;70.62;100573.56;4788525;30;20112;-88
2023/07/28 11:57:54;;;;;;;1.77;1.20;;;;;;;25.48;72.96;100574.00;4788243;30;20045;-88
2023/07/28 12:00:29;;;;;;;1.27;1.17;;;;;;;24.97;75.20;100579.03;4787732;30;20023;-88
2023/07/28 12:03:09;;;;;;;1.27;1.15;;;;;;;24.67;77.21;100575.94;4788919;30;20477;-89
2023/07/28 12:05:41;;;;;;;1.58;1.30;;;;;;;24.23;78.34;100582.28;4788260;30;20462;-88
2023/07/28 12:08:13;;;;;;;1.30;1.15;;;;;;;24.11;80.00;100582.81;4788210;30;20045;-88
2023/07/28 12:10:54;;;;;;;1.20;0.90;;;;;;;24.03;82.33;100587.16;4788345;30;20035;-88
2023/07/28 12:13:22;;;;;;;1.80;1.00;;;;;;;24.07;81.14;100590.16;4771483;30;20031;-89
2023/07/28 12:15:47;;;;;;;1.13;1.02;;;;;;;23.96;81.65;100589.53;4771989;30;20101;-89
2023/07/28 12:18:14;;;;;;;3.10;1.30;;;;;;;23.94;82.37;100589.06;4757357;30;20039;-89
2023/07/28 12:20:59;;;;;;;2.22;1.25;;;;;;;23.75;83.05;100597.47;4772712;30;20031;-87
2023/07/28 12:23:25;;;;;;;1.27;1.15;;;;;;;23.51;83.58;100584.69;4757890;29;20050;-95
2023/07/28 12:25:51;;;;;;;1.10;1.00;;;;;;;23.54;85.26;100594.31;4759927;30;20035;-89
2023/07/28 12:28:32;;;;;;;;;;;;;;;;;;;;;
2023/07/28 12:31:02;;;;;;;2.28;1.17;;;;;;;23.57;86.56;100597.28;4798228;29;20564;-93
2023/07/28 12:33:38;;;;;;;;;;;;;;;;;;;;;
2023/07/28 12:36:14;;;;;;;1.38;1.08;;;;;;;23.40;87.44;100597.09;4809839;29;20035;-94
2023/07/28 12:38:50;;;;;;;3.35;1.30;;;;;;;23.20;86.53;100587.25;4795901;29;20043;-95
2023/07/28 12:41:29;;;;;;;;;;;;;;;;;;;;;
2023/07/28 12:43:57;;;;;;;2.05;1.02;;;;;;;22.82;87.41;100596.50;4809457;29;20037;-93
2023/07/28 12:46:38;;;;;;;1.30;1.10;;;;;;;22.82;88.45;100598.44;4779739;29;20489;-94
2023/07/28 12:49:14;;;;;;;;;;;;;;;;;;;;;
2023/07/28 12:51:48;;;;;;;2.70;1.10;;;;;;;23.02;87.13;100600.03;4809589;29;20083;-95
2023/07/28 12:54:26;;;;;;;;;;;;;;;;;;;;;
2023/07/28 12:57:03;;;;;;;3.30;1.25;;;;;;;23.99;83.24;100611.09;4809901;29;20045;-95
2023/07/28 13:00:17;;;;;;;1.90;1.10;;;;;;;24.67;80.31;100595.34;4794708;29;20043;-95
2023/07/28 13:03:01;;;;;;;2.78;1.40;;;;;;;25.15;77.95;100599.34;4809573;29;20095;-96
2023/07/28 13:06:03;;;;;;;;;;;;;;;;;;;;;
2023/07/28 13:08:34;;;;;;;1.40;1.27;;;;;;;24.32;80.59;100608.94;4810169;29;20053;-96
2023/07/28 13:11:30;;;;;;;1.60;1.10;;;;;;;24.13;81.51;100613.84;4808913;29;20507;-95
2023/07/28 13:13:56;;;;;;;1.23;1.13;;;;;;;23.80;83.08;100609.25;4792863;29;20065;-94
2023/07/28 13:16:29;;;;;;;2.80;1.30;;;;;;;23.68;83.27;100608.16;4808388;29;20031;-95
2023/07/28 13:19:37;;;;;;;;;;;;;;;;;;;;;
2023/07/28 13:22:13;;;;;;;1.98;1.00;;;;;;;24.06;83.15;100618.97;4809319;29;20049;-96
2023/07/28 13:25:04;;;;;;;;;;;;;;;;;;;;;
2023/07/28 13:27:39;;;;;;;3.17;1.17;;;;;;;25.22;78.73;100604.44;4809898;29;20039;-96
2023/07/28 13:30:16;;;;;;;3.83;1.30;;;;;;;26.39;74.94;100607.59;4809916;29;20039;-96
2023/07/28 13:32:41;;;;;;;3.67;1.00;;;;;;;27.10;69.32;100603.53;4812466;29;20039;-85
2023/07/28 13:35:12;;;;;;;1.70;1.20;;;;;;;27.05;68.48;100600.16;4828593;29;20526;-96
2023/07/28 13:37:48;;;;;;;1.57;1.00;;;;;;;26.44;69.77;100601.06;4814452;29;20042;-94
2023/07/28 13:40:17;;;;;;;1.70;0.98;;;;;;;25.81;72.87;100604.13;4810727;29;20034;-94
2023/07/28 13:42:48;;;;;;;3.53;1.50;;;;;;;25.31;73.58;100601.72;4811820;29;20047;-93
2023/07/28 13:45:16;;;;;;;1.23;1.00;;;;;;;24.84;76.14;100602.94;4796703;29;20042;-94
2023/07/28 13:48:02;;;;;;;1.38;1.20;;;;;;;24.56;78.47;100602.25;4811229;29;20069;-95
2023/07/28 13:50:31;;;;;;;2.80;1.40;;;;;;;24.25;80.15;100593.88;4811264;29;20528;-95
2023/07/28 13:52:58;;;;;;;2.13;1.40;;;;;;;24.20;81.09;100597.59;4811166;29;20392;-95
2023/07/28 13:55:26;;;;;;;2.75;1.30;;;;;;;24.43;79.34;100597.59;4810310;29;20042;-95
2023/07/28 13:57:57;;;;;;;3.97;1.55;;;;;;;25.33;77.46;100594.69;4780630;29;20033;-95
2023/07/28 14:00:23;;;;;;;2.28;1.40;;;;;;;26.96;69.12;100603.75;4810188;29;20034;-95
2023/07/28 14:02:51;;;;;;;1.97;1.30;;;;;;;27.44;65.57;100587.84;4810395;29;20026;-94
2023/07/28 14:05:22;;;;;;;2.47;1.65;;;;;;;27.58;65.26;100589.56;4810779;29;20041;-95
2023/07/28 14:07:53;;;;;;;2.17;1.42;;;;;;;27.22;66.61;100593.66;4810868;29;20042;-94
2023/07/28 14:10:18;;;;;;;4.50;1.80;;;;;;;26.85;67.01;100585.78;4810567;29;20038;-95
2023/07/28 14:12:51;;;;;;;1.75;1.65;;;;;;;26.59;67.39;100581.09;4810251;29;20456;-95
2023/07/28 14:15:20;;;;;;;3.35;1.60;;;;;;;26.83;66.95;100585.31;4810340;29;20038;-94
2023/07/28 14:17:45;;;;;;;1.80;1.50;;;;;;;27.95;64.32;100587.84;4810167;29;20038;-94
2023/07/28 14:20:13;;;;;;;3.33;1.42;;;;;;;30.58;56.20;100588.13;4810194;29;20042;-95
2023/07/28 14:22:39;;;;;;;3.00;1.40;;;;;;;31.51;51.87;100576.84;4810067;29;20023;-91
2023/07/28 14:25:10;;;;;;;2.15;1.40;;;;;;;31.01;53.19;100576.47;4794306;29;20034;-94
2023/07/28 14:27:38;;;;;;;1.80;1.40;;;;;;;29.94;55.86;100566.69;4829568;29;20038;-96
2023/07/28 14:30:15;;;;;;;2.80;1.50;;;;;;;28.93;60.34;100585.81;4809727;29;20074;-94
2023/07/28 14:32:44;;;;;;;3.30;1.80;;;;;;;27.70;61.81;100574.91;4811308;29;20042;-96
2023/07/28 14:35:32;;;;;;;1.60;1.40;;;;;;;26.73;66.58;100574.53;4807609;29;20059;-95
2023/07/28 14:41:11;;;;;;;2.53;1.33;;;;;;;24.99;74.18;100589.78;4807848;29;20049;-94
2023/07/28 14:43:49;;;;;;;;;;;;;;;;;;;;;
2023/07/28 14:46:25;;;;;;;2.53;1.30;;;;;;;23.88;78.37;100590.31;4808759;29;20456;-94
2023/07/28 14:49:00;;;;;;;1.73;1.20;;;;;;;23.69;78.44;100599.53;4806591;29;20035;-94
2023/07/28 14:54:41;;;;;;;2.35;1.40;;;;;;;23.54;79.80;100597.91;4804099;29;20035;-95
2023/07/28 14:57:23;;;;;;;;;;;;;;;;;;;;;
2023/07/28 15:00:01;;;;;;;2.30;1.20;;;;;;;23.30;82.46;100587.88;4807897;29;20037;-95
2023/07/28 15:02:33;;;;;;;2.20;1.10;;;;;;;23.16;82.88;100597.31;4791660;29;20133;-94
2023/07/28 15:05:01;;;;;;;2.08;1.27;;;;;;;22.90;81.79;100587.50;4791932;29;20039;-95
2023/07/28 15:07:27;;;;;;;2.08;1.10;;;;;;;22.73;84.10;100585.31;4806128;29;20464;-95
2023/07/28 15:09:59;;;;;;;1.30;1.00;;;;;;;22.58;84.83;100582.84;4806507;29;20041;-95
2023/07/28 15:12:24;;;;;;;2.22;1.10;;;;;;;22.51;85.58;100597.03;4806391;29;20058;-94
2023/07/28 15:14:57;;;;;;;2.77;1.10;;;;;;;22.25;85.98;100589.13;4805835;29;20065;-94
2023/07/28 15:17:35;;;;;;;;;;;;;;;;;;;;;
2023/07/28 15:20:09;;;;;;;1.90;1.20;;;;;;;22.14;88.10;100592.34;4807123;29;20037;-95
2023/07/28 15:22:39;;;;;;;2.00;1.20;;;;;;;22.05;87.88;100589.44;4805938;29;20035;-94
2023/07/28 15:25:06;;;;;;;2.67;1.13;;;;;;;22.00;89.22;100587.59;4806584;29;20089;-94
2023/07/28 15:27:39;;;;;;;1.80;1.17;;;;;;;22.04;90.14;100594.16;4806253;29;20584;-94
2023/07/28 15:30:15;;;;;;;1.85;1.20;;;;;;;22.05;88.54;100589.44;4806344;29;20042;-94
2023/07/28 15:32:51;;;;;;;;;;;;;;;;;;;;;
2023/07/28 15:35:27;;;;;;;2.50;1.30;;;;;;;22.27;88.74;100591.59;4823758;29;20476;-94
2023/07/28 15:37:53;;;;;;;1.75;1.30;;;;;;;22.47;88.01;100593.25;4809151;29;20480;-94
2023/07/28 15:40:46;;;;;;;3.17;1.30;;;;;;;22.66;87.22;100603.44;4809032;29;20083;-94
2023/07/28 15:43:24;;;;;;;2.20;1.30;;;;;;;22.82;86.52;100593.72;4776944;29;20050;-94
2023/07/28 15:46:04;;;;;;;2.38;1.20;;;;;;;23.04;85.15;100617.13;4791357;29;20450;-95
2023/07/28 15:48:37;;;;;;;3.83;1.43;;;;;;;23.05;83.44;100607.72;4777538;29;20049;-94
2023/07/28 15:51:15;;;;;;;8.07;1.70;;;;;;;23.05;83.39;100610.50;4807041;29;20027;-95
2023/07/28 15:53:48;;;;;;;2.65;1.30;;;;;;;23.11;82.27;100601.81;4762150;29;20035;-94
2023/07/28 15:56:16;;;;;;;1.42;1.08;;;;;;;22.98;81.96;100602.56;4762246;29;20039;-95
2023/07/28 15:59:37;;;;;;;4.68;1.50;;;;;;;23.07;81.45;100595.19;4777478;29;20034;-95
2023/07/28 16:01:58;;;;;;;2.27;1.10;;;;;;;23.27;81.68;100599.56;4799716;29;20039;-95
2023/07/28 16:04:36;;;;;;;;;;;;;;;;;;;;;
2023/07/28 16:07:10;;;;;;;1.70;1.58;;;;;;;23.81;77.44;100605.38;4782144;29;20039;-95
2023/07/28 16:12:33;;;;;;;2.83;1.77;;;;;;;24.47;76.26;100590.28;4810476;29;20138;-93
2023/07/28 16:15:01;;;;;;;2.93;2.17;;;;;;;24.57;73.74;100590.03;4778722;29;20031;-96
2023/07/28 16:17:51;;;;;;;;;;;;;;;;;;;;;
2023/07/28 16:21:04;;;;;;;2.22;2.03;;;;;;;25.12;74.55;100582.50;4796663;29;20043;-95
2023/07/28 16:23:31;;;;;;;2.78;1.80;;;;;;;25.20;71.87;100584.50;4809288;29;20047;-93
2023/07/28 16:26:10;;;;;;;2.67;1.70;;;;;;;25.14;72.20;100578.28;4794289;29;20063;-95
2023/07/28 16:29:08;;;;;;;;;;;;;;;;;;;;;
2023/07/28 16:31:49;;;;;;;10.50;2.13;;;;;;;25.32;70.60;100586.69;4810229;29;20034;-95
2023/07/28 16:37:31;;;;;;;;;;;;;;;;;;;;;
2023/07/28 16:40:10;;;;;;;;;;;;;;;;;;;;;
2023/07/28 16:43:04;;;;;;;;;;;;;;;;;;;;;